createdAt,value
2022-10-22T00:00:36.171Z,9.46
2022-10-22T00:01:36.149Z,9.46
2022-10-22T00:02:36.210Z,9.46
2022-10-22T00:03:36.189Z,9.44
2022-10-22T00:04:36.187Z,9.44
2022-10-22T00:05:36.130Z,9.47
2022-10-22T00:06:36.140Z,9.50
2022-10-22T00:07:36.102Z,9.55
2022-10-22T00:08:36.152Z,9.58
2022-10-22T00:09:36.090Z,9.61
2022-10-22T00:10:36.060Z,9.64
2022-10-22T00:11:36.080Z,9.66
2022-10-22T00:12:36.053Z,9.65
2022-10-22T00:13:36.040Z,9.65
2022-10-22T00:14:36.017Z,9.64
2022-10-22T00:15:36.032Z,9.59
2022-10-22T00:16:35.998Z,9.58
2022-10-22T00:17:36.051Z,9.55
2022-10-22T00:18:36.004Z,9.51
2022-10-22T00:19:35.979Z,9.48
2022-10-22T00:20:35.983Z,9.48
2022-10-22T00:21:35.924Z,9.47
2022-10-22T00:22:35.973Z,9.47
2022-10-22T00:23:35.931Z,9.48
2022-10-22T00:24:35.935Z,9.48
2022-10-22T00:25:35.914Z,9.48
2022-10-22T00:26:35.961Z,9.48
2022-10-22T00:27:35.904Z,9.46
2022-10-22T00:28:35.884Z,9.43
2022-10-22T00:29:35.876Z,9.43
2022-10-22T00:30:35.861Z,9.41
2022-10-22T00:31:35.838Z,9.44
2022-10-22T00:32:35.863Z,9.44
2022-10-22T00:33:35.809Z,9.41
2022-10-22T00:34:35.829Z,9.43
2022-10-22T00:35:35.798Z,9.41
2022-10-22T00:36:35.792Z,9.39
2022-10-22T00:37:35.772Z,9.40
2022-10-22T00:38:35.813Z,9.39
2022-10-22T00:39:35.863Z,9.39
2022-10-22T00:40:35.744Z,9.36
2022-10-22T00:41:35.749Z,9.37
2022-10-22T00:42:35.787Z,9.37
2022-10-22T00:43:35.718Z,9.37
2022-10-22T00:44:35.720Z,9.34
2022-10-22T00:45:35.685Z,9.34
2022-10-22T00:46:35.718Z,9.36
2022-10-22T00:47:35.690Z,9.32
2022-10-22T00:48:35.695Z,9.34
2022-10-22T00:49:35.758Z,9.31
2022-10-22T00:50:35.667Z,9.32
2022-10-22T00:51:35.643Z,9.31
2022-10-22T00:52:35.622Z,9.31
2022-10-22T00:53:35.687Z,9.29
2022-10-22T00:54:35.625Z,9.29
2022-10-22T00:55:35.590Z,9.28
2022-10-22T00:56:35.582Z,9.25
2022-10-22T00:57:35.674Z,9.26
2022-10-22T00:58:35.621Z,9.25
2022-10-22T00:59:35.524Z,9.23
2022-10-22T01:00:35.580Z,9.22
2022-10-22T01:01:35.536Z,9.22
2022-10-22T01:02:35.520Z,9.22
2022-10-22T01:03:35.531Z,9.19
2022-10-22T01:04:35.505Z,9.18
2022-10-22T01:05:35.489Z,9.19
2022-10-22T01:06:35.488Z,9.16
2022-10-22T01:07:35.502Z,9.14
2022-10-22T01:08:35.521Z,9.13
2022-10-22T01:09:35.462Z,9.13
2022-10-22T01:10:35.473Z,9.11
2022-10-22T01:11:35.409Z,9.10
2022-10-22T01:12:35.435Z,9.08
2022-10-22T01:13:35.400Z,9.08
2022-10-22T01:14:35.430Z,9.03
2022-10-22T01:15:35.406Z,9.03
2022-10-22T01:16:35.367Z,9.02
2022-10-22T01:17:35.346Z,9.03
2022-10-22T01:18:35.407Z,9.02
2022-10-22T01:19:35.340Z,9.02
2022-10-22T01:20:35.366Z,9.00
2022-10-22T01:21:35.341Z,9.02
2022-10-22T01:22:35.359Z,9.03
2022-10-22T01:23:35.436Z,9.03
2022-10-22T01:24:35.298Z,9.03
2022-10-22T01:25:35.300Z,9.03
2022-10-22T01:26:35.302Z,9.02
2022-10-22T01:27:35.285Z,9.03
2022-10-22T01:28:35.253Z,9.02
2022-10-22T01:29:35.225Z,9.03
2022-10-22T01:30:35.218Z,9.00
2022-10-22T01:31:35.359Z,9.00
2022-10-22T01:32:35.237Z,8.97
2022-10-22T01:33:35.213Z,8.97
2022-10-22T01:34:35.271Z,8.97
2022-10-22T01:35:35.171Z,8.94
2022-10-22T01:36:35.204Z,8.95
2022-10-22T01:37:35.192Z,8.92
2022-10-22T01:38:35.164Z,8.91
2022-10-22T01:39:35.148Z,8.91
2022-10-22T01:40:35.177Z,8.92
2022-10-22T01:41:35.122Z,8.91
2022-10-22T01:42:35.116Z,8.88
2022-10-22T01:43:35.059Z,8.88
2022-10-22T01:45:35.071Z,8.87
2022-10-22T01:46:35.044Z,8.85
2022-10-22T01:47:35.048Z,8.87
2022-10-22T01:48:35.055Z,8.87
2022-10-22T01:49:35.025Z,8.85
2022-10-22T01:50:35.009Z,8.87
2022-10-22T01:51:34.980Z,8.85
2022-10-22T01:52:35.009Z,8.87
2022-10-22T01:53:35.030Z,8.87
2022-10-22T01:54:34.948Z,8.88
2022-10-22T01:55:34.928Z,8.91
2022-10-22T01:56:35.047Z,8.94
2022-10-22T01:57:34.934Z,8.89
2022-10-22T01:58:34.929Z,8.88
2022-10-22T01:59:34.948Z,8.85
2022-10-22T02:00:35.008Z,8.85
2022-10-22T02:01:35.001Z,8.85
2022-10-22T02:02:35.011Z,8.82
2022-10-22T02:03:35.077Z,8.82
2022-10-22T02:04:34.890Z,8.82
2022-10-22T02:05:34.896Z,8.84
2022-10-22T02:06:34.853Z,8.84
2022-10-22T02:07:34.870Z,8.84
2022-10-22T02:08:34.963Z,8.82
2022-10-22T02:09:34.863Z,8.84
2022-10-22T02:10:34.833Z,8.85
2022-10-22T02:11:34.842Z,8.84
2022-10-22T02:12:34.794Z,8.82
2022-10-22T02:13:34.800Z,8.82
2022-10-22T02:14:34.764Z,8.79
2022-10-22T02:15:34.757Z,8.79
2022-10-22T02:16:34.751Z,8.79
2022-10-22T02:17:34.737Z,8.82
2022-10-22T02:18:36.478Z,8.88
2022-10-22T02:19:34.685Z,8.89
2022-10-22T02:20:34.711Z,8.91
2022-10-22T02:21:34.678Z,8.91
2022-10-22T02:22:34.693Z,8.89
2022-10-22T02:23:34.709Z,8.88
2022-10-22T02:24:34.663Z,8.88
2022-10-22T02:25:34.691Z,8.84
2022-10-22T02:26:34.658Z,8.84
2022-10-22T02:27:34.645Z,8.84
2022-10-22T02:28:34.613Z,8.85
2022-10-22T02:29:34.629Z,8.87
2022-10-22T02:30:34.638Z,8.85
2022-10-22T02:31:34.595Z,8.87
2022-10-22T02:32:34.589Z,8.84
2022-10-22T02:33:34.537Z,8.84
2022-10-22T02:34:34.567Z,8.84
2022-10-22T02:35:34.536Z,8.84
2022-10-22T02:36:34.538Z,8.82
2022-10-22T02:37:34.518Z,8.84
2022-10-22T02:38:34.520Z,8.82
2022-10-22T02:39:34.498Z,8.81
2022-10-22T02:40:34.510Z,8.78
2022-10-22T02:41:34.469Z,8.78
2022-10-22T02:42:34.516Z,8.78
2022-10-22T02:43:34.463Z,8.76
2022-10-22T02:44:34.446Z,8.74
2022-10-22T02:45:34.466Z,8.71
2022-10-22T02:46:34.444Z,8.71
2022-10-22T02:47:34.427Z,8.70
2022-10-22T02:48:34.443Z,8.69
2022-10-22T02:49:34.367Z,8.66
2022-10-22T02:50:34.443Z,8.64
2022-10-22T02:51:34.438Z,8.67
2022-10-22T02:52:34.355Z,8.64
2022-10-22T02:53:34.386Z,8.63
2022-10-22T02:54:34.364Z,8.63
2022-10-22T02:55:34.324Z,8.61
2022-10-22T02:56:34.358Z,8.61
2022-10-22T02:57:34.347Z,8.58
2022-10-22T02:58:34.308Z,8.56
2022-10-22T02:59:34.298Z,8.55
2022-10-22T03:00:34.348Z,8.53
2022-10-22T03:01:34.280Z,8.51
2022-10-22T03:02:34.311Z,8.49
2022-10-22T03:03:34.304Z,8.48
2022-10-22T03:04:34.288Z,8.46
2022-10-22T03:05:34.261Z,8.45
2022-10-22T03:06:34.267Z,8.44
2022-10-22T03:07:34.264Z,8.45
2022-10-22T03:08:34.253Z,8.42
2022-10-22T03:09:34.182Z,8.41
2022-10-22T03:10:34.223Z,8.41
2022-10-22T03:11:34.196Z,8.41
2022-10-22T03:12:34.184Z,8.38
2022-10-22T03:13:34.249Z,8.37
2022-10-22T03:14:34.226Z,8.36
2022-10-22T03:15:34.131Z,8.34
2022-10-22T03:16:34.119Z,8.28
2022-10-22T03:17:34.085Z,8.28
2022-10-22T03:18:34.144Z,8.27
2022-10-22T03:19:34.092Z,8.28
2022-10-22T03:20:34.086Z,8.27
2022-10-22T03:21:34.126Z,8.27
2022-10-22T03:22:34.042Z,8.27
2022-10-22T03:23:34.056Z,8.28
2022-10-22T03:24:34.078Z,8.27
2022-10-22T03:25:34.017Z,8.26
2022-10-22T03:26:34.017Z,8.26
2022-10-22T03:27:33.975Z,8.27
2022-10-22T03:28:34.004Z,8.24
2022-10-22T03:29:34.002Z,8.24
2022-10-22T03:30:34.011Z,8.24
2022-10-22T03:31:34.076Z,8.20
2022-10-22T03:32:33.949Z,8.20
2022-10-22T03:33:33.943Z,8.19
2022-10-22T03:34:33.978Z,8.19
2022-10-22T03:35:33.916Z,8.19
2022-10-22T03:36:33.970Z,8.20
2022-10-22T03:37:33.958Z,8.19
2022-10-22T03:38:33.888Z,8.20
2022-10-22T03:39:33.864Z,8.20
2022-10-22T03:40:33.863Z,8.20
2022-10-22T03:41:33.887Z,8.20
2022-10-22T03:42:33.872Z,8.23
2022-10-22T03:43:33.865Z,8.20
2022-10-22T03:44:33.854Z,8.20
2022-10-22T03:45:33.881Z,8.18
2022-10-22T03:46:33.828Z,8.15
2022-10-22T03:47:33.813Z,8.12
2022-10-22T03:48:33.804Z,8.09
2022-10-22T03:49:33.787Z,8.08
2022-10-22T03:50:33.872Z,8.08
2022-10-22T03:51:33.769Z,8.05
2022-10-22T03:52:33.723Z,8.03
2022-10-22T03:53:33.720Z,8.01
2022-10-22T03:54:33.752Z,8.00
2022-10-22T03:55:33.761Z,8.01
2022-10-22T03:56:33.731Z,8.00
2022-10-22T03:57:33.667Z,8.01
2022-10-22T03:58:33.680Z,7.98
2022-10-22T03:59:33.658Z,7.97
2022-10-22T04:00:33.637Z,7.95
2022-10-22T04:01:33.702Z,7.95
2022-10-22T04:02:33.600Z,7.95
2022-10-22T04:03:33.682Z,7.91
2022-10-22T04:04:33.592Z,7.90
2022-10-22T04:05:33.683Z,7.91
2022-10-22T04:06:33.737Z,7.90
2022-10-22T04:07:33.618Z,7.90
2022-10-22T04:08:33.668Z,7.88
2022-10-22T04:09:33.584Z,7.85
2022-10-22T04:10:33.564Z,7.87
2022-10-22T04:11:33.549Z,7.83
2022-10-22T04:12:33.619Z,7.83
2022-10-22T04:13:33.537Z,7.80
2022-10-22T04:14:33.566Z,7.77
2022-10-22T04:15:33.607Z,7.76
2022-10-22T04:16:33.463Z,7.75
2022-10-22T04:17:33.470Z,7.76
2022-10-22T04:18:33.541Z,7.73
2022-10-22T04:19:33.508Z,7.73
2022-10-22T04:20:33.424Z,7.69
2022-10-22T04:21:33.404Z,7.70
2022-10-22T04:22:33.426Z,7.69
2022-10-22T04:23:33.446Z,7.69
2022-10-22T04:24:33.376Z,7.67
2022-10-22T04:25:33.432Z,7.66
2022-10-22T04:26:33.374Z,7.67
2022-10-22T04:27:33.368Z,7.63
2022-10-22T04:28:33.386Z,7.63
2022-10-22T04:29:33.383Z,7.63
2022-10-22T04:30:33.318Z,7.61
2022-10-22T04:31:33.322Z,7.63
2022-10-22T04:32:33.304Z,7.60
2022-10-22T04:33:33.328Z,7.60
2022-10-22T04:34:33.297Z,7.63
2022-10-22T04:35:33.266Z,7.63
2022-10-22T04:36:33.251Z,7.61
2022-10-22T04:37:33.326Z,7.60
2022-10-22T04:38:33.442Z,7.58
2022-10-22T04:39:33.221Z,7.58
2022-10-22T04:40:33.291Z,7.57
2022-10-22T04:41:33.236Z,7.56
2022-10-22T04:42:33.161Z,7.53
2022-10-22T04:43:33.193Z,7.54
2022-10-22T04:44:33.159Z,7.53
2022-10-22T04:45:33.378Z,7.51
2022-10-22T04:46:33.130Z,7.51
2022-10-22T04:47:34.193Z,7.51
2022-10-22T04:48:33.343Z,7.53
2022-10-22T04:49:33.368Z,7.50
2022-10-22T04:50:33.181Z,7.51
2022-10-22T04:51:33.117Z,7.50
2022-10-22T04:52:33.203Z,7.51
2022-10-22T04:53:33.482Z,7.50
2022-10-22T04:54:33.296Z,7.50
2022-10-22T04:55:33.056Z,7.50
2022-10-22T04:56:33.089Z,7.48
2022-10-22T04:57:33.028Z,7.45
2022-10-22T04:58:33.054Z,7.42
2022-10-22T04:59:33.023Z,7.43
2022-10-22T05:00:33.053Z,7.40
2022-10-22T05:01:35.732Z,7.42
2022-10-22T05:02:32.977Z,7.40
2022-10-22T05:03:32.982Z,7.40
2022-10-22T05:04:32.983Z,7.38
2022-10-22T05:05:32.987Z,7.42
2022-10-22T05:06:32.975Z,7.40
2022-10-22T05:07:32.919Z,7.40
2022-10-22T05:08:32.985Z,7.40
2022-10-22T05:09:32.954Z,7.39
2022-10-22T05:10:32.911Z,7.40
2022-10-22T05:11:32.921Z,7.38
2022-10-22T05:12:32.911Z,7.39
2022-10-22T05:13:32.891Z,7.40
2022-10-22T05:14:32.835Z,7.39
2022-10-22T05:15:32.856Z,7.45
2022-10-22T05:16:32.892Z,7.47
2022-10-22T05:17:32.847Z,7.47
2022-10-22T05:18:32.891Z,7.50
2022-10-22T05:19:32.841Z,7.51
2022-10-22T05:20:32.811Z,7.53
2022-10-22T05:21:32.810Z,7.51
2022-10-22T05:22:32.791Z,7.53
2022-10-22T05:23:32.759Z,7.53
2022-10-22T05:24:32.774Z,7.51
2022-10-22T05:25:32.726Z,7.54
2022-10-22T05:26:32.753Z,7.54
2022-10-22T05:27:32.718Z,7.53
2022-10-22T05:28:32.752Z,7.56
2022-10-22T05:29:32.701Z,7.57
2022-10-22T05:30:32.734Z,7.56
2022-10-22T05:31:32.659Z,7.58
2022-10-22T05:32:32.661Z,7.58
2022-10-22T05:33:33.548Z,7.56
2022-10-22T05:34:32.643Z,7.56
2022-10-22T05:35:32.579Z,7.56
2022-10-22T05:36:32.556Z,7.57
2022-10-22T05:37:32.635Z,7.57
2022-10-22T05:38:32.565Z,7.57
2022-10-22T05:39:32.601Z,7.58
2022-10-22T05:40:32.519Z,7.61
2022-10-22T05:41:32.531Z,7.63
2022-10-22T05:42:32.513Z,7.63
2022-10-22T05:43:32.510Z,7.63
2022-10-22T05:44:32.539Z,7.61
2022-10-22T05:45:32.484Z,7.63
2022-10-22T05:46:32.438Z,7.63
2022-10-22T05:47:32.509Z,7.66
2022-10-22T05:49:32.435Z,7.66
2022-10-22T05:50:32.458Z,7.66
2022-10-22T05:51:32.394Z,7.63
2022-10-22T05:52:32.437Z,7.60
2022-10-22T05:53:32.451Z,7.58
2022-10-22T05:54:32.354Z,7.58
2022-10-22T05:55:32.420Z,7.57
2022-10-22T05:56:32.376Z,7.56
2022-10-22T05:57:32.372Z,7.58
2022-10-22T05:58:32.353Z,7.60
2022-10-22T05:59:32.387Z,7.61
2022-10-22T06:00:32.487Z,7.66
2022-10-22T06:01:32.295Z,7.69
2022-10-22T06:02:32.358Z,7.70
2022-10-22T06:03:32.313Z,7.70
2022-10-22T06:04:32.284Z,7.70
2022-10-22T06:05:32.327Z,7.73
2022-10-22T06:06:32.233Z,7.73
2022-10-22T06:07:32.313Z,7.72
2022-10-22T06:08:32.289Z,7.75
2022-10-22T06:09:32.265Z,7.75
2022-10-22T06:10:32.245Z,7.73
2022-10-22T06:11:34.979Z,7.69
2022-10-22T06:12:32.162Z,7.67
2022-10-22T06:13:32.184Z,7.67
2022-10-22T06:14:32.161Z,7.63
2022-10-22T06:15:32.165Z,7.61
2022-10-22T06:16:32.133Z,7.60
2022-10-22T06:17:32.185Z,7.57
2022-10-22T06:18:32.106Z,7.58
2022-10-22T06:19:32.158Z,7.57
2022-10-22T06:20:32.085Z,7.57
2022-10-22T06:21:32.125Z,7.57
2022-10-22T06:22:32.042Z,7.60
2022-10-22T06:23:32.054Z,7.61
2022-10-22T06:24:32.076Z,7.61
2022-10-22T06:25:32.045Z,7.58
2022-10-22T06:26:32.076Z,7.61
2022-10-22T06:27:32.042Z,7.60
2022-10-22T06:28:32.030Z,7.58
2022-10-22T06:29:32.009Z,7.61
2022-10-22T06:30:31.962Z,7.57
2022-10-22T06:31:31.956Z,7.58
2022-10-22T06:32:31.969Z,7.57
2022-10-22T06:33:31.945Z,7.60
2022-10-22T06:34:31.927Z,7.60
2022-10-22T06:35:31.967Z,7.60
2022-10-22T06:36:31.923Z,7.58
2022-10-22T06:37:31.902Z,7.57
2022-10-22T06:38:31.923Z,7.57
2022-10-22T06:39:31.874Z,7.58
2022-10-22T06:40:31.907Z,7.57
2022-10-22T06:41:31.862Z,7.61
2022-10-22T06:42:31.906Z,7.63
2022-10-22T06:43:31.862Z,7.66
2022-10-22T06:44:31.860Z,7.66
2022-10-22T06:45:31.803Z,7.69
2022-10-22T06:46:31.817Z,7.70
2022-10-22T06:47:31.782Z,7.70
2022-10-22T06:48:31.807Z,7.72
2022-10-22T06:49:31.796Z,7.72
2022-10-22T06:50:31.749Z,7.72
2022-10-22T06:51:31.799Z,7.73
2022-10-22T06:52:31.763Z,7.75
2022-10-22T06:53:31.736Z,7.76
2022-10-22T06:54:31.742Z,7.83
2022-10-22T06:55:31.714Z,7.90
2022-10-22T06:56:31.679Z,7.91
2022-10-22T06:57:31.701Z,7.93
2022-10-22T06:58:31.687Z,7.94
2022-10-22T06:59:31.659Z,7.94
2022-10-22T07:00:31.644Z,7.97
2022-10-22T07:01:31.739Z,7.98
2022-10-22T07:02:31.602Z,8.01
2022-10-22T07:03:31.615Z,8.05
2022-10-22T07:04:31.628Z,8.12
2022-10-22T07:05:31.609Z,8.18
2022-10-22T07:06:31.624Z,8.23
2022-10-22T07:07:31.578Z,8.33
2022-10-22T07:08:31.596Z,8.42
2022-10-22T07:09:31.581Z,8.51
2022-10-22T07:10:31.562Z,8.58
2022-10-22T07:11:31.523Z,8.69
2022-10-22T07:12:31.530Z,8.76
2022-10-22T07:13:31.544Z,8.82
2022-10-22T07:14:31.509Z,8.87
2022-10-22T07:15:31.489Z,8.92
2022-10-22T07:16:32.647Z,8.95
2022-10-22T07:17:31.498Z,9.00
2022-10-22T07:18:31.469Z,9.06
2022-10-22T07:19:31.482Z,9.16
2022-10-22T07:20:31.423Z,9.21
2022-10-22T07:21:31.428Z,9.21
2022-10-22T07:22:31.405Z,9.21
2022-10-22T07:23:31.414Z,9.23
2022-10-22T07:24:31.396Z,9.28
2022-10-22T07:25:31.408Z,9.29
2022-10-22T07:26:31.397Z,9.31
2022-10-22T07:27:31.386Z,9.31
2022-10-22T07:28:31.384Z,9.32
2022-10-22T07:29:31.376Z,9.39
2022-10-22T07:30:31.350Z,9.44
2022-10-22T07:31:31.324Z,9.54
2022-10-22T07:32:31.285Z,9.68
2022-10-22T07:33:31.336Z,9.79
2022-10-22T07:34:31.314Z,9.92
2022-10-22T07:35:31.298Z,9.99
2022-10-22T07:36:31.258Z,10.10
2022-10-22T07:37:31.294Z,10.25
2022-10-22T07:38:31.244Z,10.37
2022-10-22T07:39:31.261Z,10.53
2022-10-22T07:40:31.229Z,10.69
2022-10-22T07:41:31.354Z,10.89
2022-10-22T07:42:31.226Z,11.07
2022-10-22T07:43:31.184Z,11.19
2022-10-22T07:44:31.187Z,11.35
2022-10-22T07:45:32.263Z,11.54
2022-10-22T07:46:31.170Z,11.69
2022-10-22T07:47:31.173Z,11.87
2022-10-22T07:48:31.176Z,12.02
2022-10-22T07:49:31.126Z,12.13
2022-10-22T07:50:31.171Z,12.29
2022-10-22T07:51:31.138Z,12.42
2022-10-22T07:52:31.096Z,12.55
2022-10-22T07:53:31.131Z,12.65
2022-10-22T07:54:31.077Z,12.73
2022-10-22T07:55:31.062Z,12.80
2022-10-22T07:56:31.132Z,12.94
2022-10-22T07:57:31.104Z,13.00
2022-10-22T07:58:31.044Z,13.08
2022-10-22T07:59:31.007Z,13.15
2022-10-22T08:00:31.027Z,13.23
2022-10-22T08:01:31.165Z,13.33
2022-10-22T08:02:30.967Z,13.42
2022-10-22T08:03:30.979Z,13.56
2022-10-22T08:04:31.000Z,13.67
2022-10-22T08:05:30.980Z,13.75
2022-10-22T08:06:30.990Z,13.89
2022-10-22T08:07:30.928Z,13.96
2022-10-22T08:08:31.043Z,14.03
2022-10-22T08:09:30.964Z,14.04
2022-10-22T08:10:30.882Z,14.04
2022-10-22T08:11:30.917Z,14.08
2022-10-22T08:12:30.891Z,14.08
2022-10-22T08:13:30.966Z,14.14
2022-10-22T08:14:30.854Z,14.14
2022-10-22T08:15:30.841Z,14.12
2022-10-22T08:16:30.870Z,14.15
2022-10-22T08:17:30.853Z,14.17
2022-10-22T08:18:30.856Z,14.22
2022-10-22T08:19:30.803Z,14.28
2022-10-22T08:20:30.865Z,14.35
2022-10-22T08:21:30.850Z,14.43
2022-10-22T08:22:30.786Z,14.44
2022-10-22T08:23:30.996Z,14.48
2022-10-22T08:24:30.785Z,14.48
2022-10-22T08:25:30.743Z,14.45
2022-10-22T08:26:30.759Z,14.45
2022-10-22T08:27:30.821Z,14.48
2022-10-22T08:28:30.753Z,14.48
2022-10-22T08:29:30.713Z,14.51
2022-10-22T08:30:30.690Z,14.58
2022-10-22T08:31:30.819Z,14.58
2022-10-22T08:32:30.677Z,14.60
2022-10-22T08:33:30.759Z,14.59
2022-10-22T08:34:30.674Z,14.58
2022-10-22T08:35:30.623Z,14.59
2022-10-22T08:36:30.635Z,14.66
2022-10-22T08:37:30.646Z,14.77
2022-10-22T08:38:30.632Z,14.84
2022-10-22T08:39:30.632Z,14.99
2022-10-22T08:40:30.595Z,15.09
2022-10-22T08:41:30.579Z,15.19
2022-10-22T08:42:30.585Z,15.27
2022-10-22T08:43:30.632Z,15.28
2022-10-22T08:44:30.600Z,15.27
2022-10-22T08:45:30.507Z,15.28
2022-10-22T08:46:31.072Z,15.28
2022-10-22T08:47:30.541Z,15.33
2022-10-22T08:48:30.573Z,15.33
2022-10-22T08:49:30.483Z,15.40
2022-10-22T08:50:30.503Z,15.46
2022-10-22T08:51:30.493Z,15.49
2022-10-22T08:52:30.478Z,15.51
2022-10-22T08:53:30.456Z,15.55
2022-10-22T08:54:30.531Z,15.54
2022-10-22T08:55:33.884Z,15.54
2022-10-22T08:56:30.433Z,15.55
2022-10-22T08:58:30.404Z,15.57
2022-10-22T08:59:30.440Z,15.58
2022-10-22T09:00:30.419Z,15.58
2022-10-22T09:01:30.382Z,15.59
2022-10-22T09:02:30.364Z,15.58
2022-10-22T09:03:30.464Z,15.58
2022-10-22T09:04:30.354Z,15.57
2022-10-22T09:05:30.326Z,15.57
2022-10-22T09:06:30.350Z,15.59
2022-10-22T09:07:30.309Z,15.59
2022-10-22T09:08:30.282Z,15.61
2022-10-22T09:09:30.292Z,15.59
2022-10-22T09:10:30.280Z,15.58
2022-10-22T09:11:30.277Z,15.58
2022-10-22T09:12:30.258Z,15.58
2022-10-22T09:13:30.218Z,15.58
2022-10-22T09:14:30.249Z,15.59
2022-10-22T09:15:30.238Z,15.61
2022-10-22T09:16:30.218Z,15.64
2022-10-22T09:17:30.226Z,15.61
2022-10-22T09:18:30.221Z,15.64
2022-10-22T09:19:30.187Z,15.62
2022-10-22T09:20:30.216Z,15.62
2022-10-22T09:21:30.156Z,15.64
2022-10-22T09:22:30.177Z,15.67
2022-10-22T09:23:30.163Z,15.67
2022-10-22T09:24:32.261Z,15.67
2022-10-22T09:25:30.162Z,15.67
2022-10-22T09:26:30.105Z,15.70
2022-10-22T09:27:30.073Z,15.72
2022-10-22T09:28:30.119Z,15.73
2022-10-22T09:29:30.511Z,15.73
2022-10-22T09:30:30.065Z,15.77
2022-10-22T09:31:30.030Z,15.76
2022-10-22T09:32:30.062Z,15.79
2022-10-22T09:33:30.027Z,15.79
2022-10-22T09:34:30.003Z,15.79
2022-10-22T09:35:30.029Z,15.80
2022-10-22T09:36:29.985Z,15.77
2022-10-22T09:37:30.011Z,15.79
2022-10-22T09:38:30.005Z,15.83
2022-10-22T09:39:29.930Z,15.84
2022-10-22T09:40:30.035Z,15.84
2022-10-22T09:41:29.952Z,15.86
2022-10-22T09:42:29.954Z,15.91
2022-10-22T09:43:29.990Z,15.92
2022-10-22T09:44:29.952Z,15.94
2022-10-22T09:45:29.936Z,15.95
2022-10-22T09:46:29.902Z,15.98
2022-10-22T09:47:42.547Z,16.00
2022-10-22T09:48:29.905Z,16.02
2022-10-22T09:49:29.852Z,16.05
2022-10-22T09:50:29.853Z,16.09
2022-10-22T09:51:29.859Z,16.09
2022-10-22T09:52:29.802Z,16.10
2022-10-22T09:53:29.811Z,16.16
2022-10-22T09:54:29.795Z,16.20
2022-10-22T09:55:29.804Z,16.26
2022-10-22T09:56:29.832Z,16.31
2022-10-22T09:57:29.795Z,16.35
2022-10-22T09:58:29.775Z,16.41
2022-10-22T09:59:29.728Z,16.42
2022-10-22T10:00:29.754Z,16.46
2022-10-22T10:01:29.698Z,16.50
2022-10-22T10:02:44.968Z,16.50
2022-10-22T10:03:29.756Z,16.53
2022-10-22T10:04:29.740Z,16.54
2022-10-22T10:05:29.690Z,16.54
2022-10-22T10:06:29.669Z,16.56
2022-10-22T10:07:29.652Z,16.53
2022-10-22T10:08:29.651Z,16.47
2022-10-22T10:09:29.659Z,16.43
2022-10-22T10:10:29.625Z,16.46
2022-10-22T10:11:29.715Z,16.46
2022-10-22T10:12:29.671Z,16.47
2022-10-22T10:13:29.603Z,16.47
2022-10-22T10:14:29.582Z,16.46
2022-10-22T10:15:29.597Z,16.49
2022-10-22T10:16:29.575Z,16.49
2022-10-22T10:17:29.555Z,16.54
2022-10-22T10:18:29.573Z,16.54
2022-10-22T10:19:29.531Z,16.56
2022-10-22T10:20:29.537Z,16.57
2022-10-22T10:21:29.480Z,16.61
2022-10-22T10:22:29.505Z,16.61
2022-10-22T10:23:29.477Z,16.61
2022-10-22T10:24:29.492Z,16.65
2022-10-22T10:25:29.465Z,16.64
2022-10-22T10:26:29.457Z,16.66
2022-10-22T10:27:29.459Z,16.69
2022-10-22T10:28:29.541Z,16.69
2022-10-22T10:29:29.413Z,16.69
2022-10-22T10:30:29.454Z,16.72
2022-10-22T10:31:29.401Z,16.72
2022-10-22T10:32:29.408Z,16.68
2022-10-22T10:33:29.358Z,16.68
2022-10-22T10:34:29.370Z,16.66
2022-10-22T10:35:29.431Z,16.65
2022-10-22T10:36:29.347Z,16.65
2022-10-22T10:37:29.393Z,16.60
2022-10-22T10:38:29.768Z,16.58
2022-10-22T10:39:29.332Z,16.56
2022-10-22T10:40:29.291Z,16.57
2022-10-22T10:41:29.344Z,16.60
2022-10-22T10:42:29.265Z,16.61
2022-10-22T10:43:29.289Z,16.60
2022-10-22T10:44:29.256Z,16.65
2022-10-22T10:45:29.224Z,16.68
2022-10-22T10:46:31.175Z,16.69
2022-10-22T10:47:29.246Z,16.72
2022-10-22T10:48:29.243Z,16.78
2022-10-22T10:49:29.180Z,16.79
2022-10-22T10:50:29.216Z,16.84
2022-10-22T10:51:29.185Z,16.90
2022-10-22T10:52:29.196Z,16.96
2022-10-22T10:53:29.152Z,16.97
2022-10-22T10:54:29.231Z,17.04
2022-10-22T10:55:29.140Z,17.05
2022-10-22T10:56:29.175Z,17.09
2022-10-22T10:57:29.184Z,17.11
2022-10-22T10:58:29.089Z,17.11
2022-10-22T10:59:29.132Z,17.12
2022-10-22T11:00:29.089Z,17.14
2022-10-22T11:01:29.157Z,17.16
2022-10-22T11:02:29.089Z,17.16
2022-10-22T11:03:29.038Z,17.20
2022-10-22T11:04:29.098Z,17.23
2022-10-22T11:05:29.066Z,17.24
2022-10-22T11:06:29.037Z,17.23
2022-10-22T11:07:36.086Z,17.20
2022-10-22T11:08:29.055Z,17.19
2022-10-22T11:09:28.982Z,17.15
2022-10-22T11:10:29.020Z,17.11
2022-10-22T11:11:29.061Z,17.09
2022-10-22T11:12:28.959Z,17.09
2022-10-22T11:13:29.011Z,17.05
2022-10-22T11:14:30.103Z,17.05
2022-10-22T11:15:28.932Z,17.01
2022-10-22T11:16:28.929Z,16.97
2022-10-22T11:17:28.905Z,16.90
2022-10-22T11:18:28.944Z,16.87
2022-10-22T11:19:49.641Z,16.84
2022-10-22T11:20:28.899Z,16.83
2022-10-22T11:21:28.887Z,16.84
2022-10-22T11:22:28.873Z,16.81
2022-10-22T11:23:28.858Z,16.79
2022-10-22T11:24:28.839Z,16.81
2022-10-22T11:25:28.883Z,16.81
2022-10-22T11:26:29.019Z,16.81
2022-10-22T11:27:28.855Z,16.86
2022-10-22T11:28:28.850Z,16.86
2022-10-22T11:29:30.745Z,16.87
2022-10-22T11:30:28.790Z,16.86
2022-10-22T11:31:28.772Z,16.83
2022-10-22T11:32:28.761Z,16.81
2022-10-22T11:33:28.789Z,16.76
2022-10-22T11:34:33.707Z,16.74
2022-10-22T11:35:28.701Z,16.69
2022-10-22T11:36:29.618Z,16.65
2022-10-22T11:37:28.828Z,16.65
2022-10-22T11:38:30.680Z,16.61
2022-10-22T11:39:29.116Z,16.58
2022-10-22T11:40:28.712Z,16.57
2022-10-22T11:41:28.662Z,16.54
2022-10-22T11:42:28.756Z,16.53
2022-10-22T11:43:28.661Z,16.51
2022-10-22T11:44:28.675Z,16.51
2022-10-22T11:45:28.622Z,16.51
2022-10-22T11:46:28.649Z,16.53
2022-10-22T11:47:28.644Z,16.57
2022-10-22T11:48:28.559Z,16.61
2022-10-22T11:49:28.587Z,16.66
2022-10-22T11:50:28.597Z,16.71
2022-10-22T11:51:28.587Z,16.72
2022-10-22T11:52:28.571Z,16.75
2022-10-22T11:53:28.572Z,16.81
2022-10-22T11:54:28.513Z,16.84
2022-10-22T11:55:28.532Z,16.87
2022-10-22T11:56:28.504Z,16.90
2022-10-22T11:57:28.520Z,16.91
2022-10-22T11:58:28.489Z,16.94
2022-10-22T11:59:28.527Z,17.01
2022-10-22T12:00:28.457Z,17.05
2022-10-22T12:01:28.534Z,17.09
2022-10-22T12:02:28.455Z,17.16
2022-10-22T12:03:28.427Z,17.19
2022-10-22T12:04:28.511Z,17.23
2022-10-22T12:05:28.445Z,17.22
2022-10-22T12:06:28.421Z,17.24
2022-10-22T12:07:28.416Z,17.27
2022-10-22T12:08:28.361Z,17.30
2022-10-22T12:09:28.405Z,17.33
2022-10-22T12:10:28.383Z,17.33
2022-10-22T12:11:28.352Z,17.33
2022-10-22T12:12:28.470Z,17.36
2022-10-22T12:13:28.318Z,17.41
2022-10-22T12:14:28.329Z,17.44
2022-10-22T12:15:28.280Z,17.44
2022-10-22T12:16:37.890Z,17.45
2022-10-22T12:17:28.320Z,17.48
2022-10-22T12:18:28.297Z,17.48
2022-10-22T12:19:28.236Z,17.52
2022-10-22T12:20:28.266Z,17.51
2022-10-22T12:21:28.254Z,17.51
2022-10-22T12:22:28.261Z,17.51
2022-10-22T12:23:28.261Z,17.51
2022-10-22T12:24:28.262Z,17.52
2022-10-22T12:25:30.997Z,17.56
2022-10-22T12:26:28.234Z,17.60
2022-10-22T12:27:28.184Z,17.65
2022-10-22T12:28:28.282Z,17.70
2022-10-22T12:29:28.186Z,17.72
2022-10-22T12:30:28.113Z,17.76
2022-10-22T12:31:28.129Z,17.78
2022-10-22T12:32:28.139Z,17.74
2022-10-22T12:33:28.123Z,17.72
2022-10-22T12:34:28.086Z,17.68
2022-10-22T12:35:28.101Z,17.70
2022-10-22T12:36:28.079Z,17.67
2022-10-22T12:37:28.151Z,17.67
2022-10-22T12:38:28.079Z,17.63
2022-10-22T12:39:28.101Z,17.60
2022-10-22T12:40:28.027Z,17.57
2022-10-22T12:41:28.095Z,17.54
2022-10-22T12:42:28.006Z,17.54
2022-10-22T12:43:28.149Z,17.54
2022-10-22T12:44:28.163Z,17.56
2022-10-22T12:45:28.003Z,17.57
2022-10-22T12:46:28.002Z,17.60
2022-10-22T12:47:27.990Z,17.67
2022-10-22T12:48:27.936Z,17.67
2022-10-22T12:49:27.951Z,17.71
2022-10-22T12:50:27.960Z,17.72
2022-10-22T12:51:27.975Z,17.74
2022-10-22T12:52:27.958Z,17.72
2022-10-22T12:53:27.880Z,17.74
2022-10-22T12:54:27.894Z,17.72
2022-10-22T12:55:27.877Z,17.72
2022-10-22T12:56:27.883Z,17.71
2022-10-22T12:57:27.864Z,17.71
2022-10-22T12:58:29.574Z,17.67
2022-10-22T12:59:27.822Z,17.67
2022-10-22T13:00:27.868Z,17.65
2022-10-22T13:01:27.846Z,17.63
2022-10-22T13:02:27.811Z,17.60
2022-10-22T13:03:27.780Z,17.57
2022-10-22T13:04:27.790Z,17.57
2022-10-22T13:05:27.779Z,17.54
2022-10-22T13:06:27.789Z,17.49
2022-10-22T13:07:27.765Z,17.48
2022-10-22T13:08:27.725Z,17.49
2022-10-22T13:09:28.141Z,17.48
2022-10-22T13:10:27.764Z,17.46